sensor_id;sensor_type;location;lat;lon;timestamp;temperature;humidity
26408;DHT22;14583;43.604;1.364;2023-09-08T00:02:12;23.80;81.20
26408;DHT22;14583;43.604;1.364;2023-09-08T00:04:38;23.80;81.20
26408;DHT22;14583;43.604;1.364;2023-09-08T00:07:04;23.80;81.40
26408;DHT22;14583;43.604;1.364;2023-09-08T00:09:29;23.70;81.20
26408;DHT22;14583;43.604;1.364;2023-09-08T00:11:55;23.70;81.40
26408;DHT22;14583;43.604;1.364;2023-09-08T00:14:21;23.60;81.80
26408;DHT22;14583;43.604;1.364;2023-09-08T00:16:47;23.50;81.80
26408;DHT22;14583;43.604;1.364;2023-09-08T00:19:13;23.60;81.80
26408;DHT22;14583;43.604;1.364;2023-09-08T00:21:39;23.60;82.00
26408;DHT22;14583;43.604;1.364;2023-09-08T00:24:05;23.50;82.20
26408;DHT22;14583;43.604;1.364;2023-09-08T00:26:31;23.40;81.80
26408;DHT22;14583;43.604;1.364;2023-09-08T00:28:57;23.40;82.20
26408;DHT22;14583;43.604;1.364;2023-09-08T00:31:23;23.50;82.10
26408;DHT22;14583;43.604;1.364;2023-09-08T00:33:49;23.60;82.00
26408;DHT22;14583;43.604;1.364;2023-09-08T00:36:15;23.50;81.80
26408;DHT22;14583;43.604;1.364;2023-09-08T00:38:41;23.50;81.80
26408;DHT22;14583;43.604;1.364;2023-09-08T00:41:07;23.70;81.30
26408;DHT22;14583;43.604;1.364;2023-09-08T00:43:33;23.60;81.90
26408;DHT22;14583;43.604;1.364;2023-09-08T00:45:58;23.50;82.00
26408;DHT22;14583;43.604;1.364;2023-09-08T00:48:26;23.50;82.40
26408;DHT22;14583;43.604;1.364;2023-09-08T00:50:52;23.50;82.40
26408;DHT22;14583;43.604;1.364;2023-09-08T00:53:17;23.50;82.00
26408;DHT22;14583;43.604;1.364;2023-09-08T00:55:43;23.50;82.40
26408;DHT22;14583;43.604;1.364;2023-09-08T00:58:11;23.40;82.40
26408;DHT22;14583;43.604;1.364;2023-09-08T01:00:37;23.30;82.30
26408;DHT22;14583;43.604;1.364;2023-09-08T01:03:03;23.30;82.60
26408;DHT22;14583;43.604;1.364;2023-09-08T01:05:29;23.30;82.40
26408;DHT22;14583;43.604;1.364;2023-09-08T01:07:56;23.20;83.10
26408;DHT22;14583;43.604;1.364;2023-09-08T01:10:23;23.30;82.80
26408;DHT22;14583;43.604;1.364;2023-09-08T01:12:49;23.20;82.60
26408;DHT22;14583;43.604;1.364;2023-09-08T01:15:14;23.10;82.80
26408;DHT22;14583;43.604;1.364;2023-09-08T01:17:40;23.10;83.00
26408;DHT22;14583;43.604;1.364;2023-09-08T01:20:19;23.00;83.30
26408;DHT22;14583;43.604;1.364;2023-09-08T01:25:28;23.00;83.60
26408;DHT22;14583;43.604;1.364;2023-09-08T01:27:55;22.90;83.50
26408;DHT22;14583;43.604;1.364;2023-09-08T01:30:25;22.90;83.60
26408;DHT22;14583;43.604;1.364;2023-09-08T01:32:53;22.90;84.10
26408;DHT22;14583;43.604;1.364;2023-09-08T01:35:19;22.80;83.80
26408;DHT22;14583;43.604;1.364;2023-09-08T01:37:46;22.80;84.20
26408;DHT22;14583;43.604;1.364;2023-09-08T01:40:13;22.80;84.50
26408;DHT22;14583;43.604;1.364;2023-09-08T01:42:39;22.80;84.40
26408;DHT22;14583;43.604;1.364;2023-09-08T01:45:05;22.80;84.60
26408;DHT22;14583;43.604;1.364;2023-09-08T01:47:32;22.70;84.50
26408;DHT22;14583;43.604;1.364;2023-09-08T01:49:57;22.60;85.00
26408;DHT22;14583;43.604;1.364;2023-09-08T01:52:24;22.60;85.30
26408;DHT22;14583;43.604;1.364;2023-09-08T01:54:50;22.70;85.30
26408;DHT22;14583;43.604;1.364;2023-09-08T01:57:16;22.60;85.30
26408;DHT22;14583;43.604;1.364;2023-09-08T01:59:42;22.60;85.00
26408;DHT22;14583;43.604;1.364;2023-09-08T02:02:07;22.60;85.10
26408;DHT22;14583;43.604;1.364;2023-09-08T02:04:33;22.50;85.40
26408;DHT22;14583;43.604;1.364;2023-09-08T02:06:58;22.60;85.50
26408;DHT22;14583;43.604;1.364;2023-09-08T02:09:37;22.60;85.30
26408;DHT22;14583;43.604;1.364;2023-09-08T02:12:03;22.50;85.60
26408;DHT22;14583;43.604;1.364;2023-09-08T02:14:29;22.50;85.30
26408;DHT22;14583;43.604;1.364;2023-09-08T02:16:56;22.50;85.90
26408;DHT22;14583;43.604;1.364;2023-09-08T02:19:22;22.50;86.00
26408;DHT22;14583;43.604;1.364;2023-09-08T02:21:47;22.50;85.80
26408;DHT22;14583;43.604;1.364;2023-09-08T02:24:13;22.40;85.80
26408;DHT22;14583;43.604;1.364;2023-09-08T02:26:39;22.50;86.10
26408;DHT22;14583;43.604;1.364;2023-09-08T02:29:05;22.40;85.90
26408;DHT22;14583;43.604;1.364;2023-09-08T02:31:31;22.40;86.10
26408;DHT22;14583;43.604;1.364;2023-09-08T02:33:57;22.30;86.40
26408;DHT22;14583;43.604;1.364;2023-09-08T02:36:22;22.30;86.30
26408;DHT22;14583;43.604;1.364;2023-09-08T02:38:51;22.30;86.50
26408;DHT22;14583;43.604;1.364;2023-09-08T02:41:17;22.30;87.30
26408;DHT22;14583;43.604;1.364;2023-09-08T02:43:43;22.20;86.70
26408;DHT22;14583;43.604;1.364;2023-09-08T02:46:09;22.30;86.70
26408;DHT22;14583;43.604;1.364;2023-09-08T02:48:35;22.30;86.50
26408;DHT22;14583;43.604;1.364;2023-09-08T02:51:00;22.20;86.90
26408;DHT22;14583;43.604;1.364;2023-09-08T02:53:26;22.20;87.00
26408;DHT22;14583;43.604;1.364;2023-09-08T02:55:54;22.20;86.80
26408;DHT22;14583;43.604;1.364;2023-09-08T02:58:20;22.10;87.00
26408;DHT22;14583;43.604;1.364;2023-09-08T03:00:46;22.10;87.50
26408;DHT22;14583;43.604;1.364;2023-09-08T03:03:11;22.10;87.50
26408;DHT22;14583;43.604;1.364;2023-09-08T03:05:37;22.10;87.50
26408;DHT22;14583;43.604;1.364;2023-09-08T03:08:03;22.00;87.40
26408;DHT22;14583;43.604;1.364;2023-09-08T03:10:28;22.00;87.80
26408;DHT22;14583;43.604;1.364;2023-09-08T03:12:54;22.00;87.80
26408;DHT22;14583;43.604;1.364;2023-09-08T03:15:20;21.90;88.10
26408;DHT22;14583;43.604;1.364;2023-09-08T03:17:46;21.80;88.40
26408;DHT22;14583;43.604;1.364;2023-09-08T03:20:12;21.80;88.30
26408;DHT22;14583;43.604;1.364;2023-09-08T03:22:39;21.90;88.80
26408;DHT22;14583;43.604;1.364;2023-09-08T03:25:05;21.80;88.70
26408;DHT22;14583;43.604;1.364;2023-09-08T03:27:31;21.90;88.70
26408;DHT22;14583;43.604;1.364;2023-09-08T03:29:56;21.90;88.50
26408;DHT22;14583;43.604;1.364;2023-09-08T03:32:22;21.80;88.50
26408;DHT22;14583;43.604;1.364;2023-09-08T03:34:48;21.80;88.70
26408;DHT22;14583;43.604;1.364;2023-09-08T03:37:13;21.80;88.90
26408;DHT22;14583;43.604;1.364;2023-09-08T03:39:40;21.70;88.50
26408;DHT22;14583;43.604;1.364;2023-09-08T03:42:06;21.70;88.70
26408;DHT22;14583;43.604;1.364;2023-09-08T03:44:32;21.80;89.00
26408;DHT22;14583;43.604;1.364;2023-09-08T03:46:57;21.80;89.80
26408;DHT22;14583;43.604;1.364;2023-09-08T03:49:23;21.70;88.80
26408;DHT22;14583;43.604;1.364;2023-09-08T03:51:48;21.70;88.90
26408;DHT22;14583;43.604;1.364;2023-09-08T03:54:14;21.70;89.10
26408;DHT22;14583;43.604;1.364;2023-09-08T03:56:40;21.70;89.00
26408;DHT22;14583;43.604;1.364;2023-09-08T03:59:05;21.70;89.70
26408;DHT22;14583;43.604;1.364;2023-09-08T04:01:31;21.60;89.80
26408;DHT22;14583;43.604;1.364;2023-09-08T04:03:56;21.60;90.00
26408;DHT22;14583;43.604;1.364;2023-09-08T04:06:22;21.50;90.00
26408;DHT22;14583;43.604;1.364;2023-09-08T04:08:49;21.50;90.30
26408;DHT22;14583;43.604;1.364;2023-09-08T04:11:15;21.50;90.40
26408;DHT22;14583;43.604;1.364;2023-09-08T04:13:40;21.60;90.50
26408;DHT22;14583;43.604;1.364;2023-09-08T04:16:06;21.50;90.50
26408;DHT22;14583;43.604;1.364;2023-09-08T04:18:32;21.50;90.80
26408;DHT22;14583;43.604;1.364;2023-09-08T04:20:57;21.50;91.00
26408;DHT22;14583;43.604;1.364;2023-09-08T04:23:23;21.60;91.10
26408;DHT22;14583;43.604;1.364;2023-09-08T04:25:49;21.50;91.50
26408;DHT22;14583;43.604;1.364;2023-09-08T04:28:14;21.40;91.80
26408;DHT22;14583;43.604;1.364;2023-09-08T04:30:40;21.30;92.10
26408;DHT22;14583;43.604;1.364;2023-09-08T04:33:05;21.50;92.80
26408;DHT22;14583;43.604;1.364;2023-09-08T04:35:31;21.40;92.50
26408;DHT22;14583;43.604;1.364;2023-09-08T04:37:57;21.40;92.90
26408;DHT22;14583;43.604;1.364;2023-09-08T04:40:22;21.50;92.50
26408;DHT22;14583;43.604;1.364;2023-09-08T04:42:48;21.40;92.70
26408;DHT22;14583;43.604;1.364;2023-09-08T04:45:14;21.20;93.00
26408;DHT22;14583;43.604;1.364;2023-09-08T04:47:39;21.20;93.20
26408;DHT22;14583;43.604;1.364;2023-09-08T04:50:05;21.00;93.30
26408;DHT22;14583;43.604;1.364;2023-09-08T04:52:31;20.90;93.70
26408;DHT22;14583;43.604;1.364;2023-09-08T04:54:56;20.90;93.90
26408;DHT22;14583;43.604;1.364;2023-09-08T04:57:22;20.90;93.80
26408;DHT22;14583;43.604;1.364;2023-09-08T04:59:48;20.90;93.70
26408;DHT22;14583;43.604;1.364;2023-09-08T05:02:14;20.90;93.70
26408;DHT22;14583;43.604;1.364;2023-09-08T05:04:40;20.90;94.00
26408;DHT22;14583;43.604;1.364;2023-09-08T05:07:06;20.80;94.30
26408;DHT22;14583;43.604;1.364;2023-09-08T05:09:31;20.80;94.20
26408;DHT22;14583;43.604;1.364;2023-09-08T05:11:58;20.70;94.10
26408;DHT22;14583;43.604;1.364;2023-09-08T05:14:25;20.70;94.30
26408;DHT22;14583;43.604;1.364;2023-09-08T05:16:51;20.70;94.20
26408;DHT22;14583;43.604;1.364;2023-09-08T05:19:21;20.70;94.30
26408;DHT22;14583;43.604;1.364;2023-09-08T05:21:46;20.60;94.60
26408;DHT22;14583;43.604;1.364;2023-09-08T05:24:12;20.60;94.70
26408;DHT22;14583;43.604;1.364;2023-09-08T05:26:38;20.60;94.60
26408;DHT22;14583;43.604;1.364;2023-09-08T05:29:07;20.80;94.20
26408;DHT22;14583;43.604;1.364;2023-09-08T05:31:32;20.80;94.10
26408;DHT22;14583;43.604;1.364;2023-09-08T05:33:58;20.90;94.00
26408;DHT22;14583;43.604;1.364;2023-09-08T05:36:24;20.90;93.70
26408;DHT22;14583;43.604;1.364;2023-09-08T05:38:50;20.90;93.70
26408;DHT22;14583;43.604;1.364;2023-09-08T05:41:15;21.00;93.40
26408;DHT22;14583;43.604;1.364;2023-09-08T05:43:41;21.00;93.40
26408;DHT22;14583;43.604;1.364;2023-09-08T05:46:07;21.10;93.50
26408;DHT22;14583;43.604;1.364;2023-09-08T05:48:32;21.00;93.30
26408;DHT22;14583;43.604;1.364;2023-09-08T05:50:58;21.00;93.40
26408;DHT22;14583;43.604;1.364;2023-09-08T05:53:24;21.10;93.50
26408;DHT22;14583;43.604;1.364;2023-09-08T05:55:50;21.00;93.20
26408;DHT22;14583;43.604;1.364;2023-09-08T05:58:15;21.10;93.30
26408;DHT22;14583;43.604;1.364;2023-09-08T06:00:41;21.30;92.60
26408;DHT22;14583;43.604;1.364;2023-09-08T06:03:06;21.50;92.10
26408;DHT22;14583;43.604;1.364;2023-09-08T06:05:32;21.70;91.80
26408;DHT22;14583;43.604;1.364;2023-09-08T06:07:58;21.70;91.60
26408;DHT22;14583;43.604;1.364;2023-09-08T06:10:23;21.90;91.10
26408;DHT22;14583;43.604;1.364;2023-09-08T06:12:49;22.00;91.00
26408;DHT22;14583;43.604;1.364;2023-09-08T06:15:16;22.00;90.70
26408;DHT22;14583;43.604;1.364;2023-09-08T06:17:42;22.30;90.30
26408;DHT22;14583;43.604;1.364;2023-09-08T06:20:08;22.50;90.00
26408;DHT22;14583;43.604;1.364;2023-09-08T06:22:34;22.40;89.80
26408;DHT22;14583;43.604;1.364;2023-09-08T06:25:00;22.40;90.20
26408;DHT22;14583;43.604;1.364;2023-09-08T06:27:25;22.40;90.10
26408;DHT22;14583;43.604;1.364;2023-09-08T06:29:51;22.40;90.00
26408;DHT22;14583;43.604;1.364;2023-09-08T06:32:17;22.60;89.10
26408;DHT22;14583;43.604;1.364;2023-09-08T06:34:43;22.70;88.30
26408;DHT22;14583;43.604;1.364;2023-09-08T06:37:08;22.70;87.70
26408;DHT22;14583;43.604;1.364;2023-09-08T06:39:34;22.80;88.50
26408;DHT22;14583;43.604;1.364;2023-09-08T06:42:00;22.80;87.50
26408;DHT22;14583;43.604;1.364;2023-09-08T06:44:25;22.90;88.10
26408;DHT22;14583;43.604;1.364;2023-09-08T06:46:51;22.90;88.60
26408;DHT22;14583;43.604;1.364;2023-09-08T06:49:17;22.70;90.00
26408;DHT22;14583;43.604;1.364;2023-09-08T06:51:42;22.70;89.40
26408;DHT22;14583;43.604;1.364;2023-09-08T06:54:08;22.60;90.00
26408;DHT22;14583;43.604;1.364;2023-09-08T06:56:36;22.70;90.00
26408;DHT22;14583;43.604;1.364;2023-09-08T06:59:02;22.70;88.60
26408;DHT22;14583;43.604;1.364;2023-09-08T07:01:28;22.90;88.30
26408;DHT22;14583;43.604;1.364;2023-09-08T07:03:53;23.10;87.70
26408;DHT22;14583;43.604;1.364;2023-09-08T07:06:19;23.10;87.10
26408;DHT22;14583;43.604;1.364;2023-09-08T07:08:47;23.10;86.70
26408;DHT22;14583;43.604;1.364;2023-09-08T07:11:15;23.20;86.70
26408;DHT22;14583;43.604;1.364;2023-09-08T07:13:41;23.20;86.40
26408;DHT22;14583;43.604;1.364;2023-09-08T07:16:07;23.30;86.50
26408;DHT22;14583;43.604;1.364;2023-09-08T07:18:32;23.40;86.40
26408;DHT22;14583;43.604;1.364;2023-09-08T07:21:02;23.40;86.80
26408;DHT22;14583;43.604;1.364;2023-09-08T07:23:27;23.40;85.70
26408;DHT22;14583;43.604;1.364;2023-09-08T07:25:53;23.40;85.50
26408;DHT22;14583;43.604;1.364;2023-09-08T07:28:19;23.60;85.40
26408;DHT22;14583;43.604;1.364;2023-09-08T07:30:44;23.80;84.60
26408;DHT22;14583;43.604;1.364;2023-09-08T07:33:10;23.90;84.60
26408;DHT22;14583;43.604;1.364;2023-09-08T07:35:37;23.90;84.70
26408;DHT22;14583;43.604;1.364;2023-09-08T07:38:04;23.90;84.40
26408;DHT22;14583;43.604;1.364;2023-09-08T07:40:29;23.80;84.40
26408;DHT22;14583;43.604;1.364;2023-09-08T07:42:55;23.90;85.20
26408;DHT22;14583;43.604;1.364;2023-09-08T07:45:20;24.00;83.50
26408;DHT22;14583;43.604;1.364;2023-09-08T07:47:46;24.00;83.70
26408;DHT22;14583;43.604;1.364;2023-09-08T07:50:26;24.00;83.90
26408;DHT22;14583;43.604;1.364;2023-09-08T07:52:54;24.00;83.90
26408;DHT22;14583;43.604;1.364;2023-09-08T07:55:21;24.10;83.40
26408;DHT22;14583;43.604;1.364;2023-09-08T07:57:54;24.20;84.20
26408;DHT22;14583;43.604;1.364;2023-09-08T08:00:20;24.30;83.80
26408;DHT22;14583;43.604;1.364;2023-09-08T08:02:49;24.30;83.00
26408;DHT22;14583;43.604;1.364;2023-09-08T08:05:15;24.30;82.50
26408;DHT22;14583;43.604;1.364;2023-09-08T08:07:42;24.40;82.50
26408;DHT22;14583;43.604;1.364;2023-09-08T08:10:08;24.30;82.20
26408;DHT22;14583;43.604;1.364;2023-09-08T08:12:34;24.40;82.70
26408;DHT22;14583;43.604;1.364;2023-09-08T08:15:00;24.50;82.60
26408;DHT22;14583;43.604;1.364;2023-09-08T08:17:25;24.60;81.80
26408;DHT22;14583;43.604;1.364;2023-09-08T08:19:53;24.60;82.80
26408;DHT22;14583;43.604;1.364;2023-09-08T08:22:19;24.80;82.30
26408;DHT22;14583;43.604;1.364;2023-09-08T08:24:45;24.80;81.40
26408;DHT22;14583;43.604;1.364;2023-09-08T08:27:11;24.70;81.40
26408;DHT22;14583;43.604;1.364;2023-09-08T08:29:36;24.80;81.40
26408;DHT22;14583;43.604;1.364;2023-09-08T08:32:02;24.90;81.40
26408;DHT22;14583;43.604;1.364;2023-09-08T08:34:28;24.90;81.40
26408;DHT22;14583;43.604;1.364;2023-09-08T08:36:57;25.00;81.40
26408;DHT22;14583;43.604;1.364;2023-09-08T08:39:22;25.00;81.10
26408;DHT22;14583;43.604;1.364;2023-09-08T08:41:48;25.00;80.80
26408;DHT22;14583;43.604;1.364;2023-09-08T08:44:15;25.10;80.40
26408;DHT22;14583;43.604;1.364;2023-09-08T08:46:44;25.20;80.70
26408;DHT22;14583;43.604;1.364;2023-09-08T08:49:11;25.20;80.30
26408;DHT22;14583;43.604;1.364;2023-09-08T08:51:39;25.20;80.10
26408;DHT22;14583;43.604;1.364;2023-09-08T08:54:06;25.30;80.30
26408;DHT22;14583;43.604;1.364;2023-09-08T08:56:32;25.40;80.20
26408;DHT22;14583;43.604;1.364;2023-09-08T08:58:58;25.50;80.30
26408;DHT22;14583;43.604;1.364;2023-09-08T09:01:26;25.60;80.10
26408;DHT22;14583;43.604;1.364;2023-09-08T09:03:52;25.60;79.70
26408;DHT22;14583;43.604;1.364;2023-09-08T09:06:18;25.80;80.00
26408;DHT22;14583;43.604;1.364;2023-09-08T09:08:45;25.90;79.30
26408;DHT22;14583;43.604;1.364;2023-09-08T09:11:11;26.00;78.60
26408;DHT22;14583;43.604;1.364;2023-09-08T09:13:37;25.90;78.40
26408;DHT22;14583;43.604;1.364;2023-09-08T09:16:03;26.00;79.30
26408;DHT22;14583;43.604;1.364;2023-09-08T09:18:30;25.90;78.00
26408;DHT22;14583;43.604;1.364;2023-09-08T09:20:59;26.00;78.40
26408;DHT22;14583;43.604;1.364;2023-09-08T09:23:32;26.10;78.20
26408;DHT22;14583;43.604;1.364;2023-09-08T09:25:59;26.10;77.60
26408;DHT22;14583;43.604;1.364;2023-09-08T09:28:25;26.20;78.20
26408;DHT22;14583;43.604;1.364;2023-09-08T09:30:52;26.30;77.80
26408;DHT22;14583;43.604;1.364;2023-09-08T09:33:20;26.30;77.80
26408;DHT22;14583;43.604;1.364;2023-09-08T09:35:51;26.40;77.70
26408;DHT22;14583;43.604;1.364;2023-09-08T09:38:17;26.50;77.70
26408;DHT22;14583;43.604;1.364;2023-09-08T09:40:45;26.60;77.10
26408;DHT22;14583;43.604;1.364;2023-09-08T09:43:11;26.70;77.50
26408;DHT22;14583;43.604;1.364;2023-09-08T09:45:38;26.70;77.30
26408;DHT22;14583;43.604;1.364;2023-09-08T09:48:05;26.70;76.90
26408;DHT22;14583;43.604;1.364;2023-09-08T09:50:33;26.70;76.50
26408;DHT22;14583;43.604;1.364;2023-09-08T09:53:00;26.70;77.10
26408;DHT22;14583;43.604;1.364;2023-09-08T09:55:27;26.80;77.00
26408;DHT22;14583;43.604;1.364;2023-09-08T09:57:56;26.90;77.00
26408;DHT22;14583;43.604;1.364;2023-09-08T10:00:25;27.00;76.00
26408;DHT22;14583;43.604;1.364;2023-09-08T10:02:52;27.00;76.20
26408;DHT22;14583;43.604;1.364;2023-09-08T10:05:19;27.00;76.40
26408;DHT22;14583;43.604;1.364;2023-09-08T10:07:47;27.00;76.80
26408;DHT22;14583;43.604;1.364;2023-09-08T10:10:12;27.00;78.40
26408;DHT22;14583;43.604;1.364;2023-09-08T10:12:38;27.20;76.60
26408;DHT22;14583;43.604;1.364;2023-09-08T10:15:07;27.20;76.30
26408;DHT22;14583;43.604;1.364;2023-09-08T10:17:34;27.10;76.60
26408;DHT22;14583;43.604;1.364;2023-09-08T10:20:01;27.30;77.80
26408;DHT22;14583;43.604;1.364;2023-09-08T10:22:34;27.30;75.50
26408;DHT22;14583;43.604;1.364;2023-09-08T10:25:04;27.40;75.50
26408;DHT22;14583;43.604;1.364;2023-09-08T10:27:31;27.70;75.10
26408;DHT22;14583;43.604;1.364;2023-09-08T10:30:00;27.70;75.40
26408;DHT22;14583;43.604;1.364;2023-09-08T10:32:27;27.70;75.00
26408;DHT22;14583;43.604;1.364;2023-09-08T10:34:53;27.80;76.00
26408;DHT22;14583;43.604;1.364;2023-09-08T10:37:21;27.70;75.10
26408;DHT22;14583;43.604;1.364;2023-09-08T10:39:47;27.70;74.40
26408;DHT22;14583;43.604;1.364;2023-09-08T10:44:59;27.80;75.10
26408;DHT22;14583;43.604;1.364;2023-09-08T10:47:32;27.90;74.50
26408;DHT22;14583;43.604;1.364;2023-09-08T10:49:59;28.00;75.20
26408;DHT22;14583;43.604;1.364;2023-09-08T10:52:25;28.00;75.40
26408;DHT22;14583;43.604;1.364;2023-09-08T10:54:53;28.00;74.70
26408;DHT22;14583;43.604;1.364;2023-09-08T10:57:24;28.10;74.80
26408;DHT22;14583;43.604;1.364;2023-09-08T10:59:58;28.20;74.80
26408;DHT22;14583;43.604;1.364;2023-09-08T11:02:37;28.30;74.30
26408;DHT22;14583;43.604;1.364;2023-09-08T11:05:14;28.30;73.80
26408;DHT22;14583;43.604;1.364;2023-09-08T11:07:42;28.40;74.40
26408;DHT22;14583;43.604;1.364;2023-09-08T11:10:09;28.60;73.80
26408;DHT22;14583;43.604;1.364;2023-09-08T11:12:35;28.60;73.90
26408;DHT22;14583;43.604;1.364;2023-09-08T11:15:06;28.60;73.20
26408;DHT22;14583;43.604;1.364;2023-09-08T11:17:35;28.70;74.00
26408;DHT22;14583;43.604;1.364;2023-09-08T11:20:02;28.70;72.80
26408;DHT22;14583;43.604;1.364;2023-09-08T11:22:37;28.70;72.50
26408;DHT22;14583;43.604;1.364;2023-09-08T11:25:03;28.70;73.30
26408;DHT22;14583;43.604;1.364;2023-09-08T11:27:31;28.80;73.50
26408;DHT22;14583;43.604;1.364;2023-09-08T11:29:58;28.90;74.10
26408;DHT22;14583;43.604;1.364;2023-09-08T11:32:36;29.00;72.90
26408;DHT22;14583;43.604;1.364;2023-09-08T11:35:06;29.00;72.90
26408;DHT22;14583;43.604;1.364;2023-09-08T11:37:36;28.90;72.50
26408;DHT22;14583;43.604;1.364;2023-09-08T11:40:03;28.90;72.90
26408;DHT22;14583;43.604;1.364;2023-09-08T11:42:31;29.00;72.10
26408;DHT22;14583;43.604;1.364;2023-09-08T11:44:58;29.00;73.20
26408;DHT22;14583;43.604;1.364;2023-09-08T11:47:24;29.20;73.20
26408;DHT22;14583;43.604;1.364;2023-09-08T11:49:52;29.30;72.60
26408;DHT22;14583;43.604;1.364;2023-09-08T11:52:18;29.40;72.70
26408;DHT22;14583;43.604;1.364;2023-09-08T11:54:44;29.40;71.20
26408;DHT22;14583;43.604;1.364;2023-09-08T11:57:10;29.40;72.10
26408;DHT22;14583;43.604;1.364;2023-09-08T11:59:38;29.40;71.80
26408;DHT22;14583;43.604;1.364;2023-09-08T12:02:04;29.30;71.90
26408;DHT22;14583;43.604;1.364;2023-09-08T12:04:29;29.30;72.60
26408;DHT22;14583;43.604;1.364;2023-09-08T12:06:55;29.40;72.30
26408;DHT22;14583;43.604;1.364;2023-09-08T12:09:24;29.40;71.70
26408;DHT22;14583;43.604;1.364;2023-09-08T12:11:50;29.50;72.70
26408;DHT22;14583;43.604;1.364;2023-09-08T12:14:16;29.60;71.70
26408;DHT22;14583;43.604;1.364;2023-09-08T12:16:42;29.70;72.40
26408;DHT22;14583;43.604;1.364;2023-09-08T12:19:27;29.80;72.00
26408;DHT22;14583;43.604;1.364;2023-09-08T12:21:55;29.90;72.40
26408;DHT22;14583;43.604;1.364;2023-09-08T12:27:19;30.00;72.00
26408;DHT22;14583;43.604;1.364;2023-09-08T12:29:53;30.10;71.70
26408;DHT22;14583;43.604;1.364;2023-09-08T12:32:20;30.20;70.60
26408;DHT22;14583;43.604;1.364;2023-09-08T12:34:46;30.30;71.00
26408;DHT22;14583;43.604;1.364;2023-09-08T12:37:11;30.30;71.90
26408;DHT22;14583;43.604;1.364;2023-09-08T12:39:38;30.40;71.40
26408;DHT22;14583;43.604;1.364;2023-09-08T12:42:04;30.30;70.50
26408;DHT22;14583;43.604;1.364;2023-09-08T12:44:30;30.30;69.40
26408;DHT22;14583;43.604;1.364;2023-09-08T12:46:56;30.40;70.70
26408;DHT22;14583;43.604;1.364;2023-09-08T12:49:21;30.40;70.50
26408;DHT22;14583;43.604;1.364;2023-09-08T12:51:47;30.30;69.90
26408;DHT22;14583;43.604;1.364;2023-09-08T12:54:12;30.50;70.30
26408;DHT22;14583;43.604;1.364;2023-09-08T12:56:38;30.60;69.70
26408;DHT22;14583;43.604;1.364;2023-09-08T12:59:04;30.70;70.70
26408;DHT22;14583;43.604;1.364;2023-09-08T13:01:29;30.70;68.80
26408;DHT22;14583;43.604;1.364;2023-09-08T13:03:55;30.80;70.60
26408;DHT22;14583;43.604;1.364;2023-09-08T13:06:21;30.90;70.10
26408;DHT22;14583;43.604;1.364;2023-09-08T13:08:46;30.90;69.30
26408;DHT22;14583;43.604;1.364;2023-09-08T13:11:12;30.90;68.10
26408;DHT22;14583;43.604;1.364;2023-09-08T13:13:38;31.10;68.50
26408;DHT22;14583;43.604;1.364;2023-09-08T13:16:03;31.10;68.60
26408;DHT22;14583;43.604;1.364;2023-09-08T13:18:29;31.10;67.50
26408;DHT22;14583;43.604;1.364;2023-09-08T13:21:00;31.10;69.00
26408;DHT22;14583;43.604;1.364;2023-09-08T13:23:26;31.10;69.50
26408;DHT22;14583;43.604;1.364;2023-09-08T13:25:52;31.20;69.30
26408;DHT22;14583;43.604;1.364;2023-09-08T13:28:17;31.30;67.30
26408;DHT22;14583;43.604;1.364;2023-09-08T13:30:43;31.30;67.50
26408;DHT22;14583;43.604;1.364;2023-09-08T13:33:09;31.40;67.40
26408;DHT22;14583;43.604;1.364;2023-09-08T13:35:34;31.40;67.80
26408;DHT22;14583;43.604;1.364;2023-09-08T13:38:00;31.40;66.90
26408;DHT22;14583;43.604;1.364;2023-09-08T13:40:28;31.50;68.00
26408;DHT22;14583;43.604;1.364;2023-09-08T13:42:54;31.50;67.60
26408;DHT22;14583;43.604;1.364;2023-09-08T13:45:19;31.50;67.00
26408;DHT22;14583;43.604;1.364;2023-09-08T13:47:45;31.40;66.30
26408;DHT22;14583;43.604;1.364;2023-09-08T13:50:10;31.50;66.80
26408;DHT22;14583;43.604;1.364;2023-09-08T13:52:36;31.60;66.30
26408;DHT22;14583;43.604;1.364;2023-09-08T13:55:05;31.80;65.70
26408;DHT22;14583;43.604;1.364;2023-09-08T13:57:31;31.80;66.30
26408;DHT22;14583;43.604;1.364;2023-09-08T13:59:56;31.90;65.70
26408;DHT22;14583;43.604;1.364;2023-09-08T14:02:22;32.00;64.50
26408;DHT22;14583;43.604;1.364;2023-09-08T14:04:48;32.00;63.50
26408;DHT22;14583;43.604;1.364;2023-09-08T14:07:13;32.00;64.90
26408;DHT22;14583;43.604;1.364;2023-09-08T14:09:39;32.10;63.50
26408;DHT22;14583;43.604;1.364;2023-09-08T14:12:05;32.00;63.20
26408;DHT22;14583;43.604;1.364;2023-09-08T14:14:31;32.20;63.90
26408;DHT22;14583;43.604;1.364;2023-09-08T14:16:56;32.30;63.70
26408;DHT22;14583;43.604;1.364;2023-09-08T14:19:22;32.20;63.80
26408;DHT22;14583;43.604;1.364;2023-09-08T14:21:48;32.30;62.80
26408;DHT22;14583;43.604;1.364;2023-09-08T14:24:13;32.40;64.10
26408;DHT22;14583;43.604;1.364;2023-09-08T14:26:39;32.50;64.20
26408;DHT22;14583;43.604;1.364;2023-09-08T14:29:04;32.60;62.70
26408;DHT22;14583;43.604;1.364;2023-09-08T14:31:30;32.70;63.80
26408;DHT22;14583;43.604;1.364;2023-09-08T14:33:56;32.70;60.20
26408;DHT22;14583;43.604;1.364;2023-09-08T14:36:21;32.70;62.30
26408;DHT22;14583;43.604;1.364;2023-09-08T14:38:48;32.80;61.80
26408;DHT22;14583;43.604;1.364;2023-09-08T14:41:13;33.00;61.90
26408;DHT22;14583;43.604;1.364;2023-09-08T14:43:39;33.00;60.50
26408;DHT22;14583;43.604;1.364;2023-09-08T14:46:05;33.00;61.50
26408;DHT22;14583;43.604;1.364;2023-09-08T14:48:31;33.20;60.00
26408;DHT22;14583;43.604;1.364;2023-09-08T14:50:57;33.20;60.50
26408;DHT22;14583;43.604;1.364;2023-09-08T14:53:23;33.40;60.70
26408;DHT22;14583;43.604;1.364;2023-09-08T14:55:49;33.30;59.30
26408;DHT22;14583;43.604;1.364;2023-09-08T14:58:17;33.20;58.80
26408;DHT22;14583;43.604;1.364;2023-09-08T15:00:44;33.10;59.70
26408;DHT22;14583;43.604;1.364;2023-09-08T15:03:10;33.00;59.00
26408;DHT22;14583;43.604;1.364;2023-09-08T15:05:36;33.20;59.10
26408;DHT22;14583;43.604;1.364;2023-09-08T15:08:02;33.30;59.80
26408;DHT22;14583;43.604;1.364;2023-09-08T15:10:28;33.50;59.80
26408;DHT22;14583;43.604;1.364;2023-09-08T15:12:54;33.50;59.10
26408;DHT22;14583;43.604;1.364;2023-09-08T15:15:19;33.60;59.30
26408;DHT22;14583;43.604;1.364;2023-09-08T15:17:53;33.80;59.30
26408;DHT22;14583;43.604;1.364;2023-09-08T15:20:19;34.00;57.90
26408;DHT22;14583;43.604;1.364;2023-09-08T15:22:45;34.10;57.30
26408;DHT22;14583;43.604;1.364;2023-09-08T15:25:11;34.20;57.50
26408;DHT22;14583;43.604;1.364;2023-09-08T15:27:37;34.50;57.20
26408;DHT22;14583;43.604;1.364;2023-09-08T15:30:03;34.60;56.90
26408;DHT22;14583;43.604;1.364;2023-09-08T15:32:29;35.00;57.50
26408;DHT22;14583;43.604;1.364;2023-09-08T15:34:55;35.20;56.50